Airfield :
LOGIN :

Register | Disclaimer

   EN    FR    IT 

 










Legend :    VFR   Marginal VFR   IFR   Intensive IFR   Very Intensive IFR
Visi :
Ceiling :
>= 8 km
>= 3000ft
5 to 8 km
1000 to 3000 ft
1500m to 5 km
500 to 1000 ft
800 to 1500m
200 to 500 ft
< 800m
< 200 ft
Symbols :   Thunderstorms  Fog  Heavy snow  Heavy precipitations  Wind > 20 kt
SIGMETs :     Misc.  Thunderstorms  Icing  Turbulence  Mountain Waves  Volcanic Ashes






- Airport Elevation : 584 ft


LFPV - Villacoublay Vélizy

CURRENT METAR :
  • 061630Z AUTO 27012KT 230V290 CAVOK 17/04 Q1004 BECMG 25015G25KT

EXPIRED METARs :
  • 061600Z AUTO 27015KT 200V290 CAVOK 16/04 Q1004 BECMG 25015G25KT
  • 061530Z AUTO 26014KT 210V290 CAVOK 17/05 Q1004 BECMG 25015G25KT
  • 061500Z AUTO 28011KT CAVOK 16/05 Q1004 BECMG 25015G25KT
  • 061430Z AUTO 24012KT 190V290 CAVOK 16/03 Q1004 BECMG 25015G25KT
  • 061400Z AUTO 27010KT CAVOK 16/05 Q1004
  • 061330Z AUTO 26014KT 220V280 CAVOK 16/04 Q1005 TEMPO 26015G25KT 4000 -SHRA

TAF TAF LFPV
Valid from the 06 at 15:00 until the 07 at 15:00 UTC


061400Z 0615/0715 25015G25KT CAVOK
BECMG 0620/0622 27005KT
BECMG 0704/0706 BKN014



MET'MAP, your aeronautical weather chart ! - Copyright ORBIFLY December 2007 - Disclaimer

ORBIFLY MET'MAP TEAM :

Programming & Development : Alexandra Zaïnal
Concept & original design : Baudouin d'Aumeries
Assistance for programming : Marc-Olivier Méhu
Technical & hardware support : Manuel Goepfert

Contact : metmap@orbifly.com




SOURCES & CREDITS :

   NOAA